Time;durP1;ratioP1;P1;durP2;ratioP2;P2;SDS_P1;SDS_P2;PMS_P1;PMS_P2;Temp;Humidity;BMP_temperature;BMP_pressure;BME280_temperature;BME280_humidity;BME280_pressure;Samples;Min_cycle;Max_cycle;Signal;HPM_P1;HPM_P2
2022/09/16 00:00:44;;;;;;;2.25;0.80;;;16.40;99.90;;;;;;5078671;28;20281;-71
2022/09/16 00:03:13;;;;;;;1.50;0.75;;;16.40;99.90;;;;;;5077179;28;20332;-72
2022/09/16 00:05:43;;;;;;;1.85;0.77;;;16.40;99.90;;;;;;5076791;28;20172;-71
2022/09/16 00:08:12;;;;;;;2.13;0.80;;;16.40;99.90;;;;;;5078738;28;20286;-72
2022/09/16 00:10:37;;;;;;;1.65;0.77;;;16.40;99.90;;;;;;5070821;28;20213;-71
2022/09/16 00:13:04;;;;;;;2.30;1.00;;;16.40;99.90;;;;;;5066314;28;20254;-71
2022/09/16 00:15:29;;;;;;;4.40;1.00;;;16.40;99.90;;;;;;5078739;28;20215;-71
2022/09/16 00:17:55;;;;;;;1.83;0.90;;;16.30;99.90;;;;;;5068339;28;20176;-70
2022/09/16 00:20:23;;;;;;;4.13;0.98;;;16.30;99.90;;;;;;5077135;28;20171;-71
2022/09/16 00:22:48;;;;;;;2.08;0.80;;;16.30;99.90;;;;;;5078712;28;20230;-72
2022/09/16 00:25:14;;;;;;;1.67;0.70;;;16.30;99.90;;;;;;5077835;28;20199;-72
2022/09/16 00:27:42;;;;;;;1.70;0.90;;;16.30;99.90;;;;;;5071965;28;20176;-72
2022/09/16 00:30:08;;;;;;;1.63;0.80;;;16.30;99.90;;;;;;5077544;28;20195;-71
2022/09/16 00:32:34;;;;;;;2.28;1.00;;;16.30;99.90;;;;;;5066746;28;20206;-71
2022/09/16 00:34:59;;;;;;;3.83;0.80;;;16.30;99.90;;;;;;5064853;28;20197;-72
2022/09/16 00:37:27;;;;;;;0.98;0.70;;;16.30;99.90;;;;;;5077928;28;20308;-71
2022/09/16 00:39:53;;;;;;;2.92;0.93;;;16.30;99.90;;;;;;5076152;28;20176;-72
2022/09/16 00:42:18;;;;;;;2.88;0.80;;;16.30;99.90;;;;;;5072756;28;20186;-71
2022/09/16 00:45:14;;;;;;;1.42;0.77;;;16.20;99.90;;;;;;5077995;28;20211;-71
2022/09/16 00:47:58;;;;;;;2.85;0.75;;;16.20;99.90;;;;;;5077224;28;20172;-72
2022/09/16 00:50:41;;;;;;;2.85;0.80;;;16.20;99.90;;;;;;5093613;28;20192;-72
2022/09/16 00:53:16;;;;;;;1.60;0.90;;;16.10;99.90;;;;;;5077665;28;20164;-71
2022/09/16 00:55:47;;;;;;;1.67;0.90;;;16.10;99.90;;;;;;5068216;28;20179;-71
2022/09/16 00:58:22;;;;;;;2.65;1.05;;;16.10;99.90;;;;;;5077818;28;20188;-72
2022/09/16 01:00:51;;;;;;;1.20;0.80;;;16.10;99.90;;;;;;5077624;28;20179;-72
2022/09/16 01:03:19;;;;;;;2.72;1.20;;;16.10;99.90;;;;;;5073538;28;20191;-72
2022/09/16 01:05:46;;;;;;;1.30;0.75;;;16.00;99.90;;;;;;5077707;28;20184;-72
2022/09/16 01:08:12;;;;;;;2.05;0.80;;;16.00;99.90;;;;;;5078186;28;20199;-72
2022/09/16 01:10:43;;;;;;;2.05;0.90;;;16.00;99.90;;;;;;5066631;28;20180;-72
2022/09/16 01:13:11;;;;;;;2.67;0.80;;;15.90;99.90;;;;;;5069188;28;20164;-72
2022/09/16 01:15:54;;;;;;;1.45;0.80;;;15.90;99.90;;;;;;5076949;28;20203;-71
2022/09/16 01:18:42;;;;;;;1.77;0.73;;;15.90;99.90;;;;;;5063200;28;20184;-72
2022/09/16 01:21:28;;;;;;;2.90;0.80;;;15.80;99.90;;;;;;5071367;28;20184;-72
2022/09/16 01:23:59;;;;;;;1.45;0.85;;;15.80;99.90;;;;;;5070637;28;20208;-72
2022/09/16 01:26:33;;;;;;;2.30;0.70;;;15.70;99.90;;;;;;5057716;28;20243;-71
2022/09/16 01:29:36;;;;;;;2.05;0.90;;;15.70;99.90;;;;;;5072947;28;20206;-72
2022/09/16 01:32:24;;;;;;;2.30;0.73;;;15.70;99.90;;;;;;5061837;28;20187;-73
2022/09/16 01:35:03;;;;;;;3.15;0.75;;;15.60;99.90;;;;;;5074899;28;20237;-72
2022/09/16 01:38:04;;;;;;;3.35;0.88;;;15.70;99.90;;;;;;5075780;28;20263;-72
2022/09/16 01:40:49;;;;;;;3.10;0.88;;;15.60;99.90;;;;;;5020054;28;20279;-72
2022/09/16 01:43:20;;;;;;;1.27;0.82;;;15.60;99.90;;;;;;5059386;28;20176;-72
2022/09/16 01:46:09;;;;;;;1.80;0.70;;;15.60;99.90;;;;;;5077481;28;20169;-71
2022/09/16 01:48:40;;;;;;;2.42;0.75;;;15.60;99.90;;;;;;5079876;28;20211;-72
2022/09/16 01:51:15;;;;;;;2.70;0.90;;;15.60;99.90;;;;;;5085620;28;20259;-72
2022/09/16 01:53:49;;;;;;;2.55;0.90;;;15.50;99.90;;;;;;5071873;28;20212;-71
2022/09/16 01:56:42;;;;;;;1.30;0.60;;;15.50;99.90;;;;;;5057149;28;20190;-73
2022/09/16 01:59:14;;;;;;;2.35;0.80;;;15.50;99.90;;;;;;5063362;28;20267;-72
2022/09/16 02:01:49;;;;;;;2.40;0.90;;;15.50;99.90;;;;;;5077895;28;20180;-73
2022/09/16 02:04:22;;;;;;;3.22;1.02;;;15.40;99.90;;;;;;5088135;28;20252;-73
2022/09/16 02:06:50;;;;;;;2.40;0.80;;;15.40;99.90;;;;;;5081516;28;20171;-73
2022/09/16 02:09:23;;;;;;;2.15;0.88;;;15.40;99.90;;;;;;5062614;28;20196;-73
2022/09/16 02:11:50;;;;;;;2.30;0.90;;;15.40;99.90;;;;;;5061126;28;20177;-73
2022/09/16 02:14:23;;;;;;;1.65;0.82;;;15.40;99.90;;;;;;5090001;28;20191;-72
2022/09/16 02:16:53;;;;;;;1.77;0.82;;;15.40;99.90;;;;;;5076134;28;20168;-73
2022/09/16 02:19:23;;;;;;;2.63;0.90;;;15.30;99.90;;;;;;5098775;28;20176;-73
2022/09/16 02:21:51;;;;;;;3.53;0.85;;;15.30;99.90;;;;;;5073213;28;20282;-73
2022/09/16 02:24:20;;;;;;;3.47;0.90;;;15.30;99.90;;;;;;5083824;28;20210;-72
2022/09/16 02:26:51;;;;;;;3.03;1.00;;;15.20;99.90;;;;;;5080032;28;20176;-74
2022/09/16 02:29:23;;;;;;;2.22;1.20;;;15.20;99.90;;;;;;5079078;28;20203;-73
2022/09/16 02:31:53;;;;;;;2.53;0.85;;;15.20;99.90;;;;;;5068714;28;20208;-73
2022/09/16 02:34:50;;;;;;;1.35;0.80;;;15.20;99.90;;;;;;5077389;28;20168;-73
2022/09/16 02:37:29;;;;;;;3.05;1.00;;;15.20;99.90;;;;;;5059306;28;20180;-73
2022/09/16 02:40:00;;;;;;;2.67;1.00;;;15.20;99.90;;;;;;5080252;28;20222;-73
2022/09/16 02:42:27;;;;;;;1.48;0.90;;;15.10;99.90;;;;;;5097907;28;20183;-73
2022/09/16 02:44:56;;;;;;;1.83;1.10;;;15.10;99.90;;;;;;5076820;28;20271;-73
2022/09/16 02:47:53;;;;;;;2.30;1.00;;;15.10;99.90;;;;;;5072104;28;20264;-72
2022/09/16 02:50:42;;;;;;;2.03;1.10;;;15.10;99.90;;;;;;5075267;28;20180;-73
2022/09/16 02:53:28;;;;;;;4.90;1.20;;;15.10;99.90;;;;;;5076416;28;20245;-74
2022/09/16 02:56:01;;;;;;;2.78;1.17;;;15.10;99.90;;;;;;5080389;28;20191;-72
2022/09/16 02:58:28;;;;;;;1.52;1.00;;;15.10;99.90;;;;;;5080063;28;20180;-73
2022/09/16 03:00:57;;;;;;;4.97;1.30;;;15.10;99.90;;;;;;5100702;28;20181;-72
2022/09/16 03:03:23;;;;;;;5.03;1.40;;;15.00;99.90;;;;;;5090434;28;20205;-73
2022/09/16 03:06:03;;;;;;;4.13;1.30;;;15.10;99.90;;;;;;5080493;28;20239;-73
2022/09/16 03:08:32;;;;;;;2.88;1.35;;;15.10;99.90;;;;;;5078130;28;20199;-72
2022/09/16 03:11:16;;;;;;;3.08;1.13;;;15.10;99.90;;;;;;5079090;28;20199;-71
2022/09/16 03:14:02;;;;;;;4.07;1.27;;;15.10;99.90;;;;;;5076390;28;20196;-74
2022/09/16 03:16:45;;;;;;;2.00;1.27;;;15.10;99.90;;;;;;5059841;28;20156;-73
2022/09/16 03:19:38;;;;;;;2.45;1.48;;;15.00;99.90;;;;;;5071076;28;20204;-72
2022/09/16 03:22:36;;;;;;;5.40;1.60;;;15.00;99.90;;;;;;5077921;28;20172;-72
2022/09/16 03:25:08;;;;;;;2.65;1.20;;;15.00;99.90;;;;;;5065376;28;20214;-73
2022/09/16 03:27:49;;;;;;;2.50;1.30;;;15.00;99.90;;;;;;5059684;28;20187;-74
2022/09/16 03:30:15;;;;;;;3.95;1.25;;;15.00;99.90;;;;;;5072440;28;20198;-73
2022/09/16 03:32:55;;;;;;;2.42;1.45;;;15.00;99.90;;;;;;5076629;28;20180;-73
2022/09/16 03:35:35;;;;;;;3.60;1.52;;;14.90;99.90;;;;;;5079100;28;20168;-73
2022/09/16 03:38:02;;;;;;;3.33;1.40;;;14.90;99.90;;;;;;5074766;28;20210;-72
2022/09/16 03:40:30;;;;;;;2.40;1.15;;;14.90;99.90;;;;;;5068265;28;20198;-73
2022/09/16 03:42:59;;;;;;;2.15;1.35;;;14.90;99.90;;;;;;5079247;28;20167;-73
2022/09/16 03:45:24;;;;;;;3.58;1.75;;;14.90;99.90;;;;;;5080730;28;20656;-73
2022/09/16 03:47:52;;;;;;;2.92;1.00;;;14.90;99.90;;;;;;5071731;28;20200;-73
2022/09/16 03:50:20;;;;;;;2.85;1.25;;;14.90;99.90;;;;;;5059604;28;20258;-73
2022/09/16 03:52:46;;;;;;;4.90;1.17;;;14.90;99.90;;;;;;5071754;28;20337;-72
2022/09/16 03:55:12;;;;;;;4.88;1.35;;;14.90;99.90;;;;;;5059551;28;20298;-73
2022/09/16 03:57:38;;;;;;;2.75;1.10;;;14.90;99.90;;;;;;5070060;28;20440;-73
2022/09/16 04:00:06;;;;;;;1.75;1.38;;;14.90;99.90;;;;;;5059080;28;20192;-71
2022/09/16 04:02:34;;;;;;;3.38;1.27;;;14.90;99.90;;;;;;5076675;28;20210;-73
2022/09/16 04:05:00;;;;;;;2.38;1.20;;;14.90;99.90;;;;;;5088069;28;20179;-73
2022/09/16 04:07:25;;;;;;;3.42;1.40;;;14.80;99.90;;;;;;5096295;28;20176;-73
2022/09/16 04:09:51;;;;;;;5.30;1.40;;;14.80;99.90;;;;;;5077882;28;20219;-74
2022/09/16 04:12:17;;;;;;;4.20;1.90;;;14.80;99.90;;;;;;5088151;28;20176;-74
2022/09/16 04:14:43;;;;;;;3.85;1.40;;;14.70;99.90;;;;;;5076246;28;20178;-73
2022/09/16 04:17:11;;;;;;;4.82;1.45;;;14.70;99.90;;;;;;5063101;28;20197;-73
2022/09/16 04:19:37;;;;;;;4.55;1.58;;;14.70;99.90;;;;;;5067697;28;20225;-73
2022/09/16 04:22:04;;;;;;;5.55;1.38;;;14.70;99.90;;;;;;5073332;28;20180;-72
2022/09/16 04:24:31;;;;;;;4.13;1.63;;;14.70;99.90;;;;;;5072192;28;20215;-73
2022/09/16 04:26:57;;;;;;;2.00;1.27;;;14.70;99.90;;;;;;5075976;28;20183;-73
2022/09/16 04:29:25;;;;;;;6.97;1.52;;;14.60;99.90;;;;;;5063991;28;20204;-74
2022/09/16 04:31:51;;;;;;;4.45;1.40;;;14.60;99.90;;;;;;5063030;28;20184;-72
2022/09/16 04:34:17;;;;;;;4.20;1.40;;;14.60;99.90;;;;;;5064762;28;20168;-72
2022/09/16 04:36:43;;;;;;;4.68;1.50;;;14.60;99.90;;;;;;5058245;28;20234;-71
2022/09/16 04:39:08;;;;;;;3.15;1.38;;;14.60;99.90;;;;;;5076316;28;20192;-72
2022/09/16 04:41:34;;;;;;;2.45;1.20;;;14.50;99.90;;;;;;5061310;28;20180;-74
2022/09/16 04:44:04;;;;;;;6.07;1.60;;;14.50;99.90;;;;;;5067954;28;20261;-72
2022/09/16 04:46:32;;;;;;;3.70;1.60;;;14.50;99.90;;;;;;5069747;28;20176;-72
2022/09/16 04:49:02;;;;;;;3.17;1.38;;;14.50;99.90;;;;;;5076745;28;20211;-74
2022/09/16 04:51:28;;;;;;;3.80;1.48;;;14.50;99.90;;;;;;5078069;28;20192;-73
2022/09/16 04:53:55;;;;;;;2.95;1.70;;;14.50;99.90;;;;;;5073214;28;20256;-72
2022/09/16 04:56:24;;;;;;;4.00;1.27;;;14.40;99.90;;;;;;5080223;28;20271;-75
2022/09/16 04:58:55;;;;;;;6.53;1.70;;;14.40;99.90;;;;;;5077559;28;20265;-73
2022/09/16 05:01:25;;;;;;;2.45;1.30;;;14.40;99.90;;;;;;5071903;28;20194;-74
2022/09/16 05:03:58;;;;;;;4.35;1.40;;;14.50;99.90;;;;;;5071093;28;20191;-73
2022/09/16 05:06:27;;;;;;;5.45;1.70;;;14.40;99.90;;;;;;5092775;28;20188;-74
2022/09/16 05:08:57;;;;;;;5.18;1.90;;;14.40;99.90;;;;;;5077327;28;20204;-72
2022/09/16 05:11:25;;;;;;;3.50;1.50;;;14.40;99.90;;;;;;5076715;28;20180;-72
2022/09/16 05:13:51;;;;;;;2.38;1.23;;;14.40;99.90;;;;;;5076893;28;20207;-73
2022/09/16 05:16:23;;;;;;;3.42;1.42;;;14.40;99.90;;;;;;5070715;28;20212;-73
2022/09/16 05:18:54;;;;;;;2.47;1.60;;;14.30;99.90;;;;;;5068309;28;20169;-73
2022/09/16 05:21:22;;;;;;;5.07;1.63;;;14.30;99.90;;;;;;5077760;28;20179;-73
2022/09/16 05:23:48;;;;;;;4.53;1.27;;;14.30;99.90;;;;;;5071296;28;20172;-73
2022/09/16 05:26:20;;;;;;;2.90;1.20;;;14.30;99.90;;;;;;5070633;28;20238;-73
2022/09/16 05:28:51;;;;;;;2.08;1.10;;;14.30;99.90;;;;;;5076616;28;20431;-74
2022/09/16 05:31:22;;;;;;;2.72;1.08;;;14.30;99.90;;;;;;5075419;28;20171;-72
2022/09/16 05:33:57;;;;;;;2.53;1.02;;;14.20;99.90;;;;;;5073660;28;20218;-74
2022/09/16 05:36:24;;;;;;;3.13;1.05;;;14.20;99.90;;;;;;5077857;28;20228;-74
2022/09/16 05:38:50;;;;;;;3.25;1.30;;;14.20;99.90;;;;;;5080559;28;20187;-68
2022/09/16 05:41:15;;;;;;;3.17;1.30;;;14.20;99.90;;;;;;5078994;28;20200;-74
2022/09/16 05:43:44;;;;;;;3.50;1.05;;;14.20;99.90;;;;;;5066988;28;20263;-75
2022/09/16 05:46:16;;;;;;;3.42;1.00;;;14.20;99.90;;;;;;5080242;28;20210;-75
2022/09/16 05:48:42;;;;;;;4.82;1.00;;;14.30;99.90;;;;;;5086615;28;20202;-76
2022/09/16 05:51:11;;;;;;;3.60;1.10;;;14.30;99.90;;;;;;5083432;28;20168;-76
2022/09/16 05:53:36;;;;;;;3.08;1.10;;;14.30;99.90;;;;;;5064123;28;20398;-75
2022/09/16 05:56:17;;;;;;;3.33;1.05;;;14.30;99.90;;;;;;5078899;28;20256;-76
2022/09/16 05:58:43;;;;;;;4.70;1.10;;;14.40;99.90;;;;;;5068932;28;20176;-73
2022/09/16 06:01:14;;;;;;;2.72;1.02;;;14.40;99.90;;;;;;5072397;28;20207;-74
2022/09/16 06:03:44;;;;;;;3.90;1.08;;;14.40;99.90;;;;;;5081289;28;20209;-75
2022/09/16 06:06:24;;;;;;;3.47;1.02;;;14.40;99.90;;;;;;5076745;28;20271;-74
2022/09/16 06:08:55;;;;;;;2.92;0.73;;;14.50;99.90;;;;;;5080006;28;20215;-75
2022/09/16 06:11:22;;;;;;;3.78;1.10;;;14.50;99.90;;;;;;5080087;28;20172;-74
2022/09/16 06:13:58;;;;;;;3.53;1.20;;;14.50;99.90;;;;;;5077900;28;20258;-75
2022/09/16 06:16:30;;;;;;;3.47;1.20;;;14.60;99.90;;;;;;5067536;28;20176;-73
2022/09/16 06:18:58;;;;;;;3.80;1.00;;;14.60;99.90;;;;;;5079364;28;20229;-73
2022/09/16 06:21:24;;;;;;;3.45;1.20;;;14.60;99.90;;;;;;5080434;28;20249;-76
2022/09/16 06:23:50;;;;;;;2.55;1.00;;;14.60;99.90;;;;;;5066291;28;20176;-75
2022/09/16 06:26:20;;;;;;;3.67;1.60;;;14.70;99.90;;;;;;5065754;28;20282;-72
2022/09/16 06:28:47;;;;;;;2.78;1.15;;;14.70;99.90;;;;;;5080447;28;20192;-74
2022/09/16 06:31:17;;;;;;;7.00;1.00;;;14.80;99.90;;;;;;5081059;28;20176;-74
2022/09/16 06:33:43;;;;;;;4.53;1.10;;;14.80;99.90;;;;;;5077785;28;20238;-73
2022/09/16 06:36:20;;;;;;;1.65;0.80;;;14.80;99.90;;;;;;5086142;28;20175;-73
2022/09/16 06:38:49;;;;;;;3.63;1.13;;;14.80;99.90;;;;;;5077533;28;20176;-74
2022/09/16 06:41:16;;;;;;;3.50;1.00;;;14.90;99.90;;;;;;5075479;28;20203;-74
2022/09/16 06:43:42;;;;;;;2.53;1.15;;;14.90;99.90;;;;;;5080776;28;20260;-72
2022/09/16 06:46:14;;;;;;;1.98;0.90;;;14.90;99.90;;;;;;5075956;28;20213;-74
2022/09/16 06:48:44;;;;;;;4.13;1.10;;;15.00;99.90;;;;;;5077310;28;20249;-74
2022/09/16 06:51:21;;;;;;;2.83;1.05;;;15.00;99.90;;;;;;5063243;28;20189;-74
2022/09/16 06:53:47;;;;;;;2.78;1.05;;;15.00;99.90;;;;;;5074497;28;20178;-77
2022/09/16 06:56:17;;;;;;;3.70;1.00;;;15.10;99.90;;;;;;5097945;28;20243;-77
2022/09/16 06:58:46;;;;;;;2.83;1.38;;;15.10;99.90;;;;;;5068587;28;20208;-77
2022/09/16 07:01:24;;;;;;;2.15;1.00;;;15.20;99.90;;;;;;5070773;28;20176;-75
2022/09/16 07:03:53;;;;;;;2.83;0.90;;;15.20;99.90;;;;;;5081015;28;20176;-75
2022/09/16 07:06:21;;;;;;;3.35;1.10;;;15.30;99.90;;;;;;5078794;28;20202;-75
2022/09/16 07:08:47;;;;;;;4.28;1.20;;;15.30;99.90;;;;;;5082950;28;20207;-74
2022/09/16 07:11:20;;;;;;;4.57;0.90;;;15.30;99.90;;;;;;5076749;28;20229;-74
2022/09/16 07:13:48;;;;;;;3.25;0.90;;;15.30;99.90;;;;;;5075698;28;20183;-78
2022/09/16 07:16:19;;;;;;;2.10;0.90;;;15.30;99.90;;;;;;5074762;28;20172;-77
2022/09/16 07:18:47;;;;;;;3.55;1.05;;;15.30;99.90;;;;;;5077478;28;20183;-75
2022/09/16 07:21:16;;;;;;;2.42;0.93;;;15.30;99.90;;;;;;5063197;28;20176;-75
2022/09/16 07:23:45;;;;;;;2.72;0.98;;;15.30;99.90;;;;;;5065738;28;20362;-74
2022/09/16 07:26:20;;;;;;;1.85;0.88;;;15.30;99.90;;;;;;5063905;28;20184;-76
2022/09/16 07:28:47;;;;;;;2.80;1.15;;;15.30;99.90;;;;;;5082832;28;20282;-75
2022/09/16 07:31:23;;;;;;;2.60;1.13;;;15.30;99.90;;;;;;5098880;28;20172;-75
2022/09/16 07:33:53;;;;;;;4.90;1.15;;;15.30;99.90;;;;;;5073467;28;20336;-75
2022/09/16 07:36:26;;;;;;;2.83;1.10;;;15.40;99.90;;;;;;5079531;28;20168;-75
2022/09/16 07:38:57;;;;;;;3.65;1.10;;;15.40;99.90;;;;;;5096051;28;20257;-73
2022/09/16 07:41:25;;;;;;;2.92;1.23;;;15.50;99.90;;;;;;5062644;28;20205;-76
2022/09/16 07:43:57;;;;;;;3.70;1.08;;;15.60;99.90;;;;;;5066864;28;20172;-74
2022/09/16 07:46:27;;;;;;;2.80;1.08;;;15.60;99.90;;;;;;5078925;28;20172;-74
2022/09/16 07:48:53;;;;;;;5.25;1.10;;;15.70;99.90;;;;;;5079664;28;20211;-74
2022/09/16 07:51:21;;;;;;;2.03;0.93;;;15.80;99.90;;;;;;5066674;28;20259;-74
2022/09/16 07:53:52;;;;;;;6.85;1.15;;;15.90;99.90;;;;;;5059285;28;20173;-74
2022/09/16 07:56:21;;;;;;;3.58;1.20;;;16.00;99.90;;;;;;5059035;28;20219;-74
2022/09/16 07:58:50;;;;;;;1.77;0.93;;;16.10;99.90;;;;;;5067864;28;20219;-75
2022/09/16 08:01:17;;;;;;;1.88;1.30;;;16.20;99.90;;;;;;5067472;28;20171;-75
2022/09/16 08:03:43;;;;;;;2.67;1.00;;;16.20;99.90;;;;;;5078260;28;20203;-76
2022/09/16 08:06:11;;;;;;;2.08;0.80;;;16.20;99.90;;;;;;5078503;28;20168;-75
2022/09/16 08:08:38;;;;;;;2.03;0.75;;;16.20;99.90;;;;;;5078857;28;20211;-74
2022/09/16 08:11:03;;;;;;;3.08;0.90;;;16.20;99.90;;;;;;5080243;28;20195;-74
2022/09/16 08:13:33;;;;;;;2.50;0.80;;;16.20;99.90;;;;;;5074518;28;20237;-75
2022/09/16 08:16:02;;;;;;;2.00;0.90;;;16.30;99.90;;;;;;5076938;28;20172;-74
2022/09/16 08:18:30;;;;;;;3.53;1.02;;;16.30;99.90;;;;;;5079276;28;20195;-76
2022/09/16 08:21:16;;;;;;;2.90;0.80;;;16.30;99.90;;;;;;5069288;28;20177;-75
2022/09/16 08:23:42;;;;;;;1.60;0.70;;;16.40;99.90;;;;;;5068290;28;20180;-74
2022/09/16 08:26:09;;;;;;;2.22;0.75;;;16.50;99.90;;;;;;5069482;28;20254;-73
2022/09/16 08:28:37;;;;;;;4.70;1.13;;;16.60;99.90;;;;;;5077778;28;20200;-74
2022/09/16 08:31:03;;;;;;;1.83;0.95;;;16.60;99.90;;;;;;5070318;28;20167;-75
2022/09/16 08:33:31;;;;;;;2.15;0.80;;;16.70;99.90;;;;;;5078021;28;20198;-71
2022/09/16 08:36:05;;;;;;;1.00;0.73;;;16.80;99.90;;;;;;5058256;28;20183;-75
2022/09/16 08:38:32;;;;;;;3.72;0.80;;;16.90;99.90;;;;;;5074140;28;20176;-75
2022/09/16 08:41:15;;;;;;;2.33;0.80;;;16.90;99.90;;;;;;5065367;28;20239;-74
2022/09/16 08:43:44;;;;;;;1.27;0.90;;;17.00;99.90;;;;;;5077700;28;20235;-75
2022/09/16 08:46:23;;;;;;;3.10;1.02;;;17.00;99.90;;;;;;5079397;28;20300;-76
2022/09/16 08:48:57;;;;;;;1.52;0.90;;;17.00;99.90;;;;;;5057986;28;20208;-74
2022/09/16 08:51:23;;;;;;;3.10;1.00;;;17.00;99.90;;;;;;5065175;28;20263;-78
2022/09/16 08:54:00;;;;;;;1.98;0.80;;;17.00;99.90;;;;;;5078484;28;20203;-74
2022/09/16 08:56:35;;;;;;;2.40;0.95;;;17.00;99.90;;;;;;5063844;28;20172;-74
2022/09/16 08:59:03;;;;;;;4.00;1.10;;;17.00;99.90;;;;;;5064101;28;20184;-74
2022/09/16 09:01:56;;;;;;;3.30;0.88;;;17.00;99.90;;;;;;5057514;28;20196;-76
2022/09/16 09:04:25;;;;;;;3.15;0.93;;;17.10;99.90;;;;;;5059241;28;20226;-74
2022/09/16 09:07:37;;;;;;;3.35;0.75;;;17.10;99.90;;;;;;5060130;28;20185;-75
2022/09/16 09:10:34;;;;;;;1.27;0.70;;;17.20;99.90;;;;;;5036005;28;20446;-75
2022/09/16 09:13:02;;;;;;;4.07;0.85;;;17.20;99.90;;;;;;5075839;28;20203;-73
2022/09/16 09:15:42;;;;;;;1.88;0.70;;;17.20;99.90;;;;;;5074112;28;20211;-77
2022/09/16 09:18:31;;;;;;;1.58;0.68;;;17.20;99.90;;;;;;5065410;28;20167;-73
2022/09/16 09:21:14;;;;;;;2.60;0.73;;;17.30;99.90;;;;;;5076263;28;20171;-74
2022/09/16 09:23:54;;;;;;;4.03;0.80;;;17.30;99.90;;;;;;5071870;28;20261;-74
2022/09/16 09:26:44;;;;;;;1.10;0.55;;;17.30;99.90;;;;;;5063882;28;20207;-74
2022/09/16 09:29:20;;;;;;;2.20;0.70;;;17.40;99.90;;;;;;5072564;28;20189;-75
2022/09/16 09:31:54;;;;;;;2.40;0.50;;;17.40;99.90;;;;;;5057182;28;20172;-73
2022/09/16 09:34:39;;;;;;;1.25;0.60;;;17.40;99.90;;;;;;5063006;28;20216;-77
2022/09/16 09:37:42;;;;;;;1.15;0.40;;;17.50;99.90;;;;;;5060571;28;20246;-74
2022/09/16 09:40:16;;;;;;;6.18;0.80;;;17.60;99.90;;;;;;5075761;28;20178;-76
2022/09/16 09:42:51;;;;;;;0.77;0.47;;;17.70;99.90;;;;;;5073367;28;20192;-74
2022/09/16 09:45:26;;;;;;;5.22;0.70;;;17.80;99.90;;;;;;5074222;28;20203;-75
2022/09/16 09:48:04;;;;;;;3.00;0.50;;;17.80;99.90;;;;;;5076704;28;20179;-76
2022/09/16 09:50:42;;;;;;;3.28;0.88;;;17.90;99.90;;;;;;5073937;28;20165;-74
2022/09/16 09:53:12;;;;;;;1.65;0.60;;;18.00;99.90;;;;;;5060363;28;20233;-77
2022/09/16 09:55:40;;;;;;;1.77;0.80;;;18.30;99.90;;;;;;5070422;28;20169;-77
2022/09/16 09:58:25;;;;;;;1.73;0.60;;;18.90;99.90;;;;;;5068344;28;20168;-74
2022/09/16 10:00:56;;;;;;;2.47;0.70;;;19.50;99.90;;;;;;5071937;28;20206;-75
2022/09/16 10:03:22;;;;;;;3.17;0.70;;;20.00;99.90;;;;;;5065400;28;20196;-76
2022/09/16 10:05:50;;;;;;;2.40;0.93;;;20.50;99.90;;;;;;5057313;28;20195;-76
2022/09/16 10:08:21;;;;;;;2.25;0.90;;;20.80;99.90;;;;;;5068211;28;20169;-76
2022/09/16 10:10:49;;;;;;;1.63;0.70;;;21.00;99.90;;;;;;5073709;28;20229;-75
2022/09/16 10:13:16;;;;;;;1.20;0.43;;;21.10;99.90;;;;;;5067073;28;20192;-75
2022/09/16 10:15:45;;;;;;;1.52;0.57;;;21.00;99.90;;;;;;5076862;28;20176;-75
2022/09/16 10:18:28;;;;;;;1.17;0.60;;;20.80;99.90;;;;;;5076773;28;20263;-75
2022/09/16 10:21:03;;;;;;;1.15;0.70;;;20.60;99.90;;;;;;5074464;28;20191;-73
2022/09/16 10:23:35;;;;;;;1.73;0.65;;;20.20;99.90;;;;;;5059525;28;20168;-75
2022/09/16 10:26:22;;;;;;;0.95;0.50;;;19.90;99.90;;;;;;5070108;28;20172;-75
2022/09/16 10:29:12;;;;;;;3.53;0.70;;;19.70;99.90;;;;;;5080692;28;20222;-75
2022/09/16 10:31:41;;;;;;;3.55;0.85;;;19.40;99.90;;;;;;5080461;28;20183;-73
2022/09/16 10:34:16;;;;;;;4.25;0.80;;;19.10;99.90;;;;;;5062653;28;20219;-74
2022/09/16 10:36:42;;;;;;;1.10;0.40;;;19.00;99.90;;;;;;5072653;28;20175;-76
2022/09/16 10:39:22;;;;;;;1.52;0.50;;;18.90;99.90;;;;;;5080952;28;20198;-75
2022/09/16 10:41:49;;;;;;;1.10;0.60;;;19.10;99.90;;;;;;5080278;28;20179;-76
2022/09/16 10:44:28;;;;;;;1.50;0.68;;;19.50;99.90;;;;;;5074149;28;20180;-75
2022/09/16 10:47:13;;;;;;;5.40;0.75;;;19.80;99.90;;;;;;5074202;28;20172;-76
2022/09/16 10:49:51;;;;;;;2.33;0.80;;;19.90;99.90;;;;;;5071316;28;20212;-75
2022/09/16 10:52:17;;;;;;;1.80;0.60;;;20.00;99.90;;;;;;5080592;28;20259;-74
2022/09/16 10:54:45;;;;;;;1.92;0.77;;;20.10;99.90;;;;;;5082704;28;20195;-76
2022/09/16 10:57:28;;;;;;;1.42;0.57;;;20.20;99.90;;;;;;5080123;28;20210;-76
2022/09/16 11:00:09;;;;;;;2.03;0.50;;;20.30;99.90;;;;;;5084586;28;20168;-74
2022/09/16 11:03:14;;;;;;;1.00;0.50;;;20.40;99.90;;;;;;5081655;28;20186;-74
2022/09/16 11:05:59;;;;;;;2.00;0.57;;;20.50;99.90;;;;;;5070152;28;20192;-77
2022/09/16 11:08:55;;;;;;;1.17;0.70;;;20.50;99.90;;;;;;5072057;28;20207;-73
2022/09/16 11:11:24;;;;;;;2.10;0.50;;;20.40;99.90;;;;;;5077201;28;20176;-73
2022/09/16 11:13:57;;;;;;;1.88;0.90;;;20.30;99.90;;;;;;5080363;28;20177;-74
2022/09/16 11:16:41;;;;;;;2.08;0.80;;;20.30;99.90;;;;;;5079721;28;20268;-75
2022/09/16 11:19:54;;;;;;;1.30;0.60;;;20.40;99.90;;;;;;5079230;28;20199;-74
2022/09/16 11:22:24;;;;;;;1.33;0.50;;;20.60;99.90;;;;;;5060608;28;20191;-76
2022/09/16 11:25:42;;;;;;;1.58;0.60;;;20.90;99.90;;;;;;5080217;28;20186;-76
2022/09/16 11:28:35;;;;;;;1.58;0.68;;;21.10;99.90;;;;;;5015201;28;20179;-75
2022/09/16 11:31:06;;;;;;;2.05;0.77;;;21.20;99.90;;;;;;5076595;28;20172;-75
2022/09/16 11:33:38;;;;;;;2.20;0.60;;;21.20;99.90;;;;;;5079079;28;20192;-76
2022/09/16 11:36:25;;;;;;;1.42;0.70;;;21.10;99.90;;;;;;5079082;28;20176;-75
2022/09/16 11:39:14;;;;;;;1.35;0.60;;;20.90;99.90;;;;;;5079188;28;20266;-76
2022/09/16 11:41:42;;;;;;;1.90;0.50;;;20.70;99.90;;;;;;5079411;28;20195;-77
2022/09/16 11:44:31;;;;;;;1.83;0.70;;;20.70;99.90;;;;;;5070998;28;20176;-76
2022/09/16 11:47:21;;;;;;;1.50;0.65;;;20.70;99.90;;;;;;5060157;28;20165;-75
2022/09/16 11:49:59;;;;;;;2.00;1.05;;;20.90;99.90;;;;;;5063706;28;20243;-76
2022/09/16 11:52:32;;;;;;;1.80;0.60;;;21.00;99.90;;;;;;5080131;28;20171;-73
2022/09/16 11:55:15;;;;;;;1.52;0.50;;;21.00;99.90;;;;;;5070108;28;20176;-75
2022/09/16 11:57:49;;;;;;;0.75;0.50;;;21.00;99.90;;;;;;5078766;28;20372;-75
2022/09/16 12:00:18;;;;;;;2.58;0.80;;;21.10;99.90;;;;;;5072106;28;20173;-74
2022/09/16 12:02:51;;;;;;;0.88;0.30;;;21.10;99.90;;;;;;5059649;28;20208;-74
2022/09/16 12:05:25;;;;;;;1.25;0.47;;;21.10;99.90;;;;;;5078297;28;20176;-75
2022/09/16 12:08:12;;;;;;;3.60;0.50;;;21.10;99.90;;;;;;5080401;28;20172;-75
2022/09/16 12:10:49;;;;;;;1.50;0.57;;;21.20;99.90;;;;;;5062571;28;20229;-77
2022/09/16 12:13:23;;;;;;;1.02;0.52;;;21.20;99.90;;;;;;5079950;28;20194;-75
2022/09/16 12:15:58;;;;;;;1.13;0.50;;;21.30;99.90;;;;;;5070744;28;20168;-71
2022/09/16 12:18:36;;;;;;;2.47;0.57;;;21.40;99.90;;;;;;5058957;28;20192;-75
2022/09/16 12:21:13;;;;;;;1.30;0.65;;;21.40;99.90;;;;;;5077209;28;20160;-75
2022/09/16 12:23:47;;;;;;;1.73;0.60;;;21.40;99.90;;;;;;5072334;28;20188;-76
2022/09/16 12:26:38;;;;;;;1.52;0.65;;;21.30;99.90;;;;;;5062131;28;20183;-76
2022/09/16 12:29:47;;;;;;;0.65;0.50;;;21.20;99.90;;;;;;5065556;28;20275;-74
2022/09/16 12:32:21;;;;;;;2.95;0.75;;;20.90;99.90;;;;;;5074716;28;20212;-75
2022/09/16 12:34:57;;;;;;;4.97;0.47;;;20.50;99.90;;;;;;5058439;28;20225;-76
2022/09/16 12:37:38;;;;;;;1.13;0.45;;;20.10;99.90;;;;;;5064305;28;20172;-73
2022/09/16 12:40:05;;;;;;;3.22;0.77;;;19.60;99.90;;;;;;5064307;28;20200;-76
2022/09/16 12:43:06;;;;;;;1.35;0.57;;;19.10;99.90;;;;;;5079947;28;20423;-76
2022/09/16 12:46:01;;;;;;;2.83;0.60;;;18.50;99.90;;;;;;5069457;28;20183;-75
2022/09/16 12:48:38;;;;;;;1.58;0.43;;;18.00;99.90;;;;;;5057846;28;20161;-74
2022/09/16 12:51:38;;;;;;;2.47;0.40;;;17.60;99.90;;;;;;5088525;28;20180;-74
2022/09/16 12:54:18;;;;;;;0.32;0.30;;;17.30;99.90;;;;;;5063695;28;20192;-73
2022/09/16 12:56:55;;;;;;;1.88;0.50;;;17.00;99.90;;;;;;5077319;28;20206;-75
2022/09/16 12:59:42;;;;;;;1.98;0.40;;;16.80;99.90;;;;;;5072593;28;20263;-74
2022/09/16 13:02:20;;;;;;;1.95;0.63;;;16.60;99.90;;;;;;5077364;28;20174;-72
2022/09/16 13:04:52;;;;;;;1.75;0.63;;;16.50;99.90;;;;;;5076737;28;20247;-75
2022/09/16 13:07:25;;;;;;;1.02;0.60;;;16.30;99.90;;;;;;5082151;28;20233;-72
2022/09/16 13:10:18;;;;;;;1.60;0.68;;;16.30;99.90;;;;;;5077519;28;20187;-72
2022/09/16 13:12:55;;;;;;;1.13;0.45;;;16.30;99.90;;;;;;5076324;28;20204;-72
2022/09/16 13:15:43;;;;;;;1.15;0.63;;;16.30;99.90;;;;;;5076732;28;20209;-74
2022/09/16 13:18:45;;;;;;;1.05;0.60;;;16.30;99.90;;;;;;5076241;28;20248;-73
2022/09/16 13:21:38;;;;;;;0.63;0.50;;;16.30;99.90;;;;;;5071250;28;20179;-72
2022/09/16 13:24:28;;;;;;;3.33;0.50;;;16.30;99.90;;;;;;5076525;28;20240;-72